KGUS/GUS METAR and TAF weather

Enter ICAO airport designator
Station Type Date Time Source
KGUS METAR 2019/02/20 06:56 UTC NOAA

KGUS 200656Z AUTO 11014KT 10SM CLR M01/M02 A3025 RMK AO2 SLP256 T10101023 $


Station Type Date Time Source
KGUS Decoded METAR 2019/02/20 06:56 UTC NOAA

Grissom Air Force Base / Peru, IN, United States (KGUS) 40-39N 086-09W
Feb 20, 2019 - 01:56 AM EST / 2019.02.20 0656 UTC
Wind: from the ESE (110 degrees) at 16 MPH (14 KT):0
Visibility: 10 mile(s):0
Sky conditions: clear
Temperature: 30.2 F (-1.0 C)
Windchill: 19 F (-7 C):1
Dew Point: 27.9 F (-2.3 C)
Relative Humidity: 90%
Pressure (altimeter): 30.25 in. Hg (1024 hPa)
ob: KGUS 200656Z AUTO 11014KT 10SM CLR M01/M02 A3025 RMK AO2 SLP256 T10101023
cycle: 7

Station Type Date Time Source
KGUS TAF 2019/02/20 03:20 UTC NOAA

TAF KGUS 200300Z 2003/2109 VRB06KT 9999 FEW200 QNH3033INS
BECMG 2006/2007 11009KT 6000 -SN SCT030 BKN040 620409 QNH3002INS
TEMPO 2008/2012 -FZRA 690001
BECMG 2011/2012 09012KT 6000 -RASN OVC010 620206 QNH2971INS
BECMG 2017/2018 12012KT 8000 -DZ OVC010 QNH2957INS
BECMG 2023/2024 18012KT 9999 NSW OVC025 QNH2957INS TX01/2017Z TNM01/2009Z


Example: see airport list